createdAt,value
2023-02-07T00:00:19.054Z,27.17
2023-02-07T00:01:41.042Z,25.11
2023-02-07T00:02:47.365Z,25.43
2023-02-07T00:03:50.207Z,26.42
2023-02-07T00:04:52.089Z,26.94
2023-02-07T00:05:54.074Z,26.73
2023-02-07T00:06:55.979Z,25.65
2023-02-07T00:07:57.830Z,26.21
2023-02-07T00:09:02.522Z,27.11
2023-02-07T00:10:07.269Z,27.02
2023-02-07T00:11:12.867Z,27.67
2023-02-07T00:12:14.739Z,27.32
2023-02-07T00:13:16.562Z,26.34
2023-02-07T00:14:18.582Z,27.08
2023-02-07T00:15:20.527Z,25.01
2023-02-07T00:16:25.555Z,24.19
2023-02-07T00:17:29.550Z,25.51
2023-02-07T00:18:33.614Z,26.57
2023-02-07T00:19:35.781Z,25.70
2023-02-07T00:20:37.687Z,25.46
2023-02-07T00:21:39.498Z,26.05
2023-02-07T00:22:41.424Z,26.67
2023-02-07T00:23:44.238Z,26.28
2023-02-07T00:24:46.534Z,26.10
2023-02-07T00:25:48.534Z,26.05
2023-02-07T00:26:52.275Z,24.91
2023-02-07T00:27:54.285Z,25.76
2023-02-07T00:28:57.696Z,25.33
2023-02-07T00:29:59.991Z,27.53
2023-02-07T00:31:15.664Z,26.53
2023-02-07T00:32:17.920Z,25.19
2023-02-07T00:33:19.822Z,26.14
2023-02-07T00:34:22.220Z,26.92
2023-02-07T00:35:24.071Z,26.37
2023-02-07T00:36:28.232Z,25.97
2023-02-07T00:37:30.981Z,26.46
2023-02-07T00:38:33.782Z,26.76
2023-02-07T00:39:36.073Z,25.33
2023-02-07T00:40:38.110Z,25.95
2023-02-07T00:41:40.875Z,26.04
2023-02-07T00:42:42.858Z,26.61
2023-02-07T00:43:46.634Z,27.54
2023-02-07T00:44:48.705Z,26.37
2023-02-07T00:45:50.715Z,25.43
2023-02-07T00:46:53.171Z,25.88
2023-02-07T00:47:55.149Z,24.60
2023-02-07T00:48:57.481Z,24.54
2023-02-07T00:49:59.499Z,24.94
2023-02-07T00:58:55.563Z,30.51
2023-02-07T00:59:57.451Z,32.09
2023-02-07T01:00:59.994Z,32.47
2023-02-07T01:02:02.065Z,32.51
2023-02-07T01:03:04.236Z,32.96
2023-02-07T01:04:06.446Z,31.26
2023-02-07T01:05:08.658Z,31.14
2023-02-07T01:06:11.711Z,31.56
2023-02-07T01:07:16.024Z,30.77
2023-02-07T01:08:17.967Z,31.00
2023-02-07T01:09:19.882Z,32.14
2023-02-07T01:10:21.806Z,31.88
2023-02-07T01:11:23.747Z,34.01
2023-02-07T01:12:26.688Z,34.73
2023-02-07T01:13:29.144Z,35.11
2023-02-07T01:14:31.317Z,33.96
2023-02-07T01:15:38.311Z,34.35
2023-02-07T01:16:40.667Z,34.48
2023-02-07T01:17:42.567Z,35.21
2023-02-07T01:18:44.455Z,34.45
2023-02-07T01:19:46.486Z,34.75
2023-02-07T01:20:48.352Z,34.19
2023-02-07T01:21:50.251Z,33.76
2023-02-07T01:22:52.134Z,32.78
2023-02-07T01:23:57.718Z,33.26
2023-02-07T01:24:59.852Z,33.94
2023-02-07T01:26:05.623Z,33.22
2023-02-07T01:27:07.850Z,35.16
2023-02-07T01:28:10.964Z,34.16
2023-02-07T01:29:15.778Z,35.32
2023-02-07T01:30:17.922Z,34.67
2023-02-07T01:31:22.279Z,35.95
2023-02-07T01:32:24.486Z,36.23
2023-02-07T01:33:26.515Z,36.85
2023-02-07T01:34:28.275Z,36.16
2023-02-07T01:35:30.279Z,35.66
2023-02-07T01:36:32.689Z,35.78
2023-02-07T01:37:34.861Z,34.95
2023-02-07T01:38:37.255Z,35.22
2023-02-07T01:39:39.125Z,35.09
2023-02-07T01:40:41.179Z,34.46
2023-02-07T01:41:42.982Z,34.38
2023-02-07T01:42:45.435Z,34.02
2023-02-07T01:43:54.685Z,34.84
2023-02-07T01:45:05.263Z,33.34
2023-02-07T01:46:07.195Z,32.76
2023-02-07T01:47:20.502Z,33.66
2023-02-07T01:48:32.114Z,32.85
2023-02-07T01:49:36.338Z,31.90
2023-02-07T01:50:42.426Z,32.77
2023-02-07T01:51:51.950Z,31.35
2023-02-07T01:52:56.569Z,30.16
2023-02-07T01:54:04.394Z,31.20
2023-02-07T01:55:14.706Z,30.78
2023-02-07T01:56:30.976Z,30.44
2023-02-07T01:57:35.464Z,30.71
2023-02-07T01:58:38.863Z,31.11
2023-02-07T01:59:44.162Z,30.01
2023-02-07T02:00:48.144Z,30.37
2023-02-07T02:01:51.212Z,30.08
2023-02-07T02:02:53.319Z,29.96
2023-02-07T02:03:57.072Z,30.26
2023-02-07T02:04:59.623Z,30.64
2023-02-07T02:06:01.642Z,29.91
2023-02-07T02:07:05.319Z,31.51
2023-02-07T02:08:07.325Z,29.87
2023-02-07T02:09:14.315Z,29.20
2023-02-07T02:10:20.284Z,29.51
2023-02-07T02:11:44.008Z,28.35
2023-02-07T02:13:00.956Z,31.02
2023-02-07T02:14:24.235Z,29.43
2023-02-07T02:15:55.183Z,29.72
2023-02-07T02:17:11.058Z,30.44
2023-02-07T02:18:25.224Z,31.00
2023-02-07T02:19:55.256Z,30.62
2023-02-07T02:24:51.867Z,29.57
2023-02-07T02:26:09.013Z,30.09
2023-02-07T02:27:46.783Z,28.15
2023-02-07T02:29:23.493Z,29.01
2023-02-07T02:30:40.102Z,29.80
2023-02-07T02:32:08.885Z,28.25
2023-02-07T02:33:49.177Z,29.94
2023-02-07T02:34:54.317Z,30.38
2023-02-07T02:36:28.263Z,30.21
2023-02-07T02:37:48.251Z,29.94
2023-02-07T02:39:21.295Z,29.80
2023-02-07T02:41:00.058Z,29.62
2023-02-07T02:42:35.085Z,29.11
2023-02-07T02:43:47.041Z,29.56
2023-02-07T02:45:00.430Z,29.21
2023-02-07T02:46:31.710Z,28.45
2023-02-07T02:47:36.322Z,30.39
2023-02-07T02:48:40.438Z,30.59
2023-02-07T02:49:45.009Z,29.88
2023-02-07T02:50:49.486Z,29.95
2023-02-07T02:57:51.844Z,29.28
2023-02-07T02:59:20.626Z,29.08
2023-02-07T03:00:49.405Z,28.30
2023-02-07T03:02:17.882Z,28.47
2023-02-07T03:03:31.807Z,28.18
2023-02-07T03:05:02.452Z,30.11
2023-02-07T03:06:33.231Z,29.11
2023-02-07T03:07:59.894Z,30.19
2023-02-07T03:09:37.757Z,31.05
2023-02-07T03:11:12.227Z,29.26
2023-02-07T03:12:32.683Z,27.58
2023-02-07T03:14:09.054Z,28.76
2023-02-07T03:15:25.460Z,27.95
2023-02-07T03:16:48.103Z,29.53
2023-02-07T03:18:22.208Z,29.99
2023-02-07T03:19:32.763Z,26.33
2023-02-07T03:20:47.859Z,27.61
2023-02-07T03:22:10.960Z,36.13
2023-02-07T03:23:17.534Z,29.56
2023-02-07T03:24:31.417Z,30.83
2023-02-07T03:25:33.620Z,29.04
2023-02-07T03:26:38.407Z,32.60
2023-02-07T03:27:42.776Z,30.92
2023-02-07T03:28:48.210Z,29.09
2023-02-07T03:29:59.113Z,24.56
2023-02-07T03:31:04.848Z,24.13
2023-02-07T03:32:09.496Z,28.52
2023-02-07T03:33:14.734Z,28.77
2023-02-07T03:34:25.190Z,32.75
2023-02-07T03:35:36.949Z,30.36
2023-02-07T03:37:04.880Z,32.63
2023-02-07T03:38:07.993Z,38.23
2023-02-07T03:39:10.239Z,34.99
2023-02-07T03:40:13.028Z,29.11
2023-02-07T03:41:27.408Z,27.45
2023-02-07T03:42:46.495Z,24.63
2023-02-07T03:43:51.473Z,23.32
2023-02-07T03:44:57.150Z,23.52
2023-02-07T03:45:59.714Z,24.48
2023-02-07T03:47:01.768Z,23.28
2023-02-07T03:48:03.738Z,23.48
2023-02-07T03:49:08.252Z,24.02
2023-02-07T03:50:11.895Z,23.66
2023-02-07T03:51:13.828Z,23.95
2023-02-07T03:52:15.693Z,23.59
2023-02-07T03:53:18.131Z,23.57
2023-02-07T03:54:20.170Z,24.73
2023-02-07T03:55:22.031Z,23.59
2023-02-07T03:56:23.847Z,22.94
2023-02-07T03:57:25.729Z,22.43
2023-02-07T03:58:27.633Z,23.03
2023-02-07T03:59:30.218Z,23.13
2023-02-07T04:00:32.018Z,23.19
2023-02-07T04:01:35.009Z,23.26
2023-02-07T04:02:36.944Z,22.78
2023-02-07T04:03:38.831Z,23.12
2023-02-07T04:04:41.283Z,24.04
2023-02-07T04:05:45.558Z,24.17
2023-02-07T04:06:47.712Z,22.18
2023-02-07T04:07:49.526Z,22.86
2023-02-07T04:08:51.451Z,24.30
2023-02-07T04:09:53.272Z,24.05
2023-02-07T04:10:59.864Z,24.01
2023-02-07T04:12:01.925Z,24.39
2023-02-07T04:13:03.907Z,23.00
2023-02-07T04:14:06.217Z,23.79
2023-02-07T04:15:09.962Z,23.10
2023-02-07T04:16:11.832Z,23.39
2023-02-07T04:17:13.834Z,23.49
2023-02-07T04:18:15.840Z,23.82
2023-02-07T04:19:17.736Z,24.07
2023-02-07T04:20:19.827Z,23.37
2023-02-07T04:21:21.962Z,23.97
2023-02-07T04:22:23.992Z,24.64
2023-02-07T04:23:25.962Z,23.54
2023-02-07T04:24:31.899Z,24.00
2023-02-07T04:25:33.724Z,24.06
2023-02-07T04:26:35.641Z,24.47
2023-02-07T04:27:37.623Z,23.69
2023-02-07T04:28:39.656Z,24.29
2023-02-07T04:29:41.821Z,24.63
2023-02-07T04:30:43.683Z,24.71
2023-02-07T04:31:45.773Z,25.39
2023-02-07T04:32:47.772Z,24.46
2023-02-07T04:33:49.780Z,23.51
2023-02-07T04:34:51.862Z,25.28
2023-02-07T04:35:56.496Z,26.29
2023-02-07T04:36:58.331Z,24.64
2023-02-07T04:38:00.273Z,25.53
2023-02-07T04:39:03.039Z,24.26
2023-02-07T04:40:05.578Z,26.97
2023-02-07T04:41:08.320Z,25.39
2023-02-07T04:42:10.478Z,25.31
2023-02-07T04:43:12.272Z,25.39
2023-02-07T04:44:14.505Z,25.17
2023-02-07T04:45:16.858Z,25.12
2023-02-07T04:46:18.918Z,25.55
2023-02-07T04:47:21.047Z,27.05
2023-02-07T04:48:22.953Z,26.55
2023-02-07T04:49:24.928Z,27.75
2023-02-07T04:50:26.927Z,26.81
2023-02-07T04:51:28.754Z,25.67
2023-02-07T04:52:30.572Z,25.58
2023-02-07T04:53:33.449Z,24.31
2023-02-07T04:54:35.235Z,24.40
2023-02-07T04:55:37.627Z,24.27
2023-02-07T04:56:39.701Z,24.03
2023-02-07T04:57:41.492Z,25.34
2023-02-07T04:58:43.877Z,25.60
2023-02-07T04:59:45.882Z,24.88
2023-02-07T05:00:47.890Z,24.74
2023-02-07T05:01:50.027Z,23.91
2023-02-07T05:02:52.009Z,23.68
2023-02-07T05:03:54.284Z,24.14
2023-02-07T05:04:56.182Z,25.09
2023-02-07T05:05:58.351Z,25.51
2023-02-07T05:07:00.172Z,25.30
2023-02-07T05:08:01.978Z,24.75
2023-02-07T05:09:04.296Z,22.70
2023-02-07T05:10:06.858Z,24.74
2023-02-07T05:11:09.071Z,27.60
2023-02-07T05:12:11.119Z,28.92
2023-02-07T05:13:13.235Z,21.73
2023-02-07T05:14:15.273Z,22.10
2023-02-07T05:15:17.256Z,27.11
2023-02-07T05:16:19.830Z,24.47
2023-02-07T05:17:21.971Z,22.13
2023-02-07T05:18:24.138Z,22.33
2023-02-07T05:19:26.399Z,23.56
2023-02-07T05:20:28.310Z,24.47
2023-02-07T05:21:30.398Z,22.90
2023-02-07T05:22:32.363Z,23.71
2023-02-07T05:23:34.201Z,23.21
2023-02-07T05:24:36.128Z,23.84
2023-02-07T05:25:38.410Z,23.04
2023-02-07T05:26:40.624Z,21.65
2023-02-07T05:27:42.706Z,23.46
2023-02-07T05:28:45.023Z,23.56
2023-02-07T05:29:47.053Z,23.55
2023-02-07T05:30:54.559Z,23.44
2023-02-07T05:32:15.818Z,24.55
2023-02-07T05:33:17.716Z,24.29
2023-02-07T05:34:19.533Z,24.49
2023-02-07T05:35:22.052Z,24.96
2023-02-07T05:36:23.955Z,25.27
2023-02-07T05:37:26.666Z,23.92
2023-02-07T05:38:29.141Z,25.37
2023-02-07T05:39:31.151Z,26.64
2023-02-07T05:40:35.040Z,24.75
2023-02-07T05:41:36.875Z,24.92
2023-02-07T05:42:39.300Z,24.66
2023-02-07T05:43:41.164Z,25.76
2023-02-07T05:44:43.086Z,25.43
2023-02-07T05:45:45.925Z,27.23
2023-02-07T05:46:48.076Z,27.36
2023-02-07T05:47:50.026Z,29.14
2023-02-07T05:48:51.958Z,28.41
2023-02-07T05:49:53.862Z,28.96
2023-02-07T05:50:55.735Z,28.54
2023-02-07T05:51:57.696Z,27.64
2023-02-07T05:52:59.556Z,29.91
2023-02-07T05:54:01.427Z,28.22
2023-02-07T05:55:05.223Z,28.83
2023-02-07T05:56:07.072Z,27.88
2023-02-07T05:57:09.257Z,27.61
2023-02-07T05:58:11.106Z,29.16
2023-02-07T05:59:14.285Z,29.26
2023-02-07T06:00:18.902Z,29.57
2023-02-07T06:01:21.034Z,29.57
2023-02-07T06:02:23.250Z,29.54
2023-02-07T06:03:25.188Z,30.94
2023-02-07T06:04:27.421Z,30.74
2023-02-07T06:05:31.869Z,31.52
2023-02-07T06:06:34.096Z,32.78
2023-02-07T06:07:36.066Z,30.50
2023-02-07T06:08:40.776Z,30.76
2023-02-07T06:09:42.965Z,29.18
2023-02-07T06:10:44.773Z,28.89
2023-02-07T06:11:46.630Z,29.08
2023-02-07T06:12:51.136Z,28.77
2023-02-07T06:13:52.963Z,29.89
2023-02-07T06:14:54.917Z,29.84
2023-02-07T06:15:56.821Z,30.29
2023-02-07T06:16:58.821Z,29.27
2023-02-07T06:18:00.829Z,30.07
2023-02-07T06:19:02.875Z,29.41
2023-02-07T06:20:06.187Z,29.79
2023-02-07T06:21:08.355Z,30.46
2023-02-07T06:22:10.513Z,30.54
2023-02-07T06:23:12.500Z,29.74
2023-02-07T06:24:16.834Z,31.36
2023-02-07T06:25:21.223Z,30.12
2023-02-07T06:26:23.980Z,30.74
2023-02-07T06:27:25.814Z,31.19
2023-02-07T06:28:27.779Z,30.88
2023-02-07T06:29:29.680Z,29.81
2023-02-07T06:30:31.705Z,30.63
2023-02-07T06:31:33.816Z,30.90
2023-02-07T06:32:35.683Z,32.29
2023-02-07T06:33:37.571Z,31.10
2023-02-07T06:34:39.537Z,31.45
2023-02-07T06:35:47.266Z,31.04
2023-02-07T06:36:49.408Z,29.89
2023-02-07T06:37:51.697Z,29.78
2023-02-07T06:38:55.747Z,28.70
2023-02-07T06:39:57.829Z,27.40
2023-02-07T06:40:59.883Z,27.70
2023-02-07T06:42:01.938Z,28.31
2023-02-07T06:43:04.070Z,29.30
2023-02-07T06:44:06.463Z,28.66
2023-02-07T06:45:09.161Z,28.90
2023-02-07T06:46:11.155Z,29.38
2023-02-07T06:47:13.290Z,29.44
2023-02-07T06:48:15.190Z,30.76
2023-02-07T06:49:17.157Z,29.36
2023-02-07T06:50:19.307Z,28.64
2023-02-07T06:51:21.199Z,28.54
2023-02-07T06:52:23.405Z,26.61
2023-02-07T06:53:25.670Z,27.81
2023-02-07T06:54:27.704Z,26.88
2023-02-07T06:55:32.073Z,26.00
2023-02-07T06:56:34.211Z,28.00
2023-02-07T06:57:36.245Z,28.38
2023-02-07T06:58:38.325Z,29.10
2023-02-07T06:59:40.331Z,29.03
2023-02-07T07:00:42.428Z,28.41
2023-02-07T07:01:44.782Z,29.21
2023-02-07T07:02:46.795Z,29.49
2023-02-07T07:03:48.615Z,29.08
2023-02-07T07:04:50.468Z,30.30
2023-02-07T07:05:52.824Z,29.80
2023-02-07T07:06:55.069Z,32.50
2023-02-07T07:07:57.707Z,30.32
2023-02-07T07:08:59.596Z,28.51
2023-02-07T07:10:01.605Z,29.82
2023-02-07T07:11:04.023Z,28.90
2023-02-07T07:12:06.421Z,28.83
2023-02-07T07:13:08.415Z,29.68
2023-02-07T07:14:11.885Z,30.29
2023-02-07T07:15:14.854Z,29.48
2023-02-07T07:16:16.849Z,30.71
2023-02-07T07:17:18.975Z,30.25
2023-02-07T07:18:20.823Z,30.56
2023-02-07T07:19:22.882Z,30.23
2023-02-07T07:20:25.253Z,31.66
2023-02-07T07:21:28.754Z,31.57
2023-02-07T07:22:31.087Z,31.29
2023-02-07T07:23:33.036Z,31.62
2023-02-07T07:24:35.188Z,31.59
2023-02-07T07:25:37.607Z,30.13
2023-02-07T07:26:49.274Z,32.04
2023-02-07T07:27:53.675Z,32.65
2023-02-07T07:29:00.241Z,31.84
2023-02-07T07:30:02.322Z,32.40
2023-02-07T07:31:08.903Z,34.29
2023-02-07T07:32:25.051Z,32.85
2023-02-07T07:33:34.361Z,32.99
2023-02-07T07:34:36.182Z,32.79
2023-02-07T07:35:38.480Z,34.27
2023-02-07T07:36:41.023Z,32.79
2023-02-07T07:37:42.921Z,34.02
2023-02-07T07:38:47.485Z,35.57
2023-02-07T07:39:50.030Z,35.99
2023-02-07T07:40:51.901Z,35.94
2023-02-07T07:41:53.862Z,39.01
2023-02-07T07:43:09.279Z,34.54
2023-02-07T07:44:20.801Z,35.51
2023-02-07T07:45:22.954Z,34.34
2023-02-07T07:46:24.813Z,37.76
2023-02-07T07:47:28.036Z,58.60
2023-02-07T07:48:30.389Z,44.45
2023-02-07T07:49:32.474Z,42.04
2023-02-07T07:50:34.520Z,37.09
2023-02-07T07:51:36.631Z,33.96
2023-02-07T07:52:38.688Z,32.88
2023-02-07T07:53:41.031Z,29.55
2023-02-07T07:54:43.541Z,30.11
2023-02-07T07:55:50.746Z,29.72
2023-02-07T07:56:52.726Z,29.57
2023-02-07T07:57:54.759Z,30.44
2023-02-07T07:58:56.997Z,30.20
2023-02-07T07:59:58.946Z,31.95
2023-02-07T08:01:00.833Z,33.05
2023-02-07T08:02:03.073Z,32.98
2023-02-07T08:03:05.216Z,28.64
2023-02-07T08:04:07.868Z,29.46
2023-02-07T08:05:13.433Z,32.33
2023-02-07T08:06:15.787Z,34.54
2023-02-07T08:07:17.623Z,27.33
2023-02-07T08:08:22.309Z,28.73
2023-02-07T08:09:24.632Z,31.34
2023-02-07T08:10:26.468Z,29.07
2023-02-07T08:11:28.667Z,30.38
2023-02-07T08:12:30.506Z,30.34
2023-02-07T08:13:33.414Z,28.90
2023-02-07T08:14:35.709Z,28.74
2023-02-07T08:15:37.885Z,29.26
2023-02-07T08:16:39.705Z,29.66
2023-02-07T08:17:41.542Z,28.27
2023-02-07T08:18:44.013Z,29.10
2023-02-07T08:19:45.946Z,28.23
2023-02-07T08:20:50.440Z,27.99
2023-02-07T08:21:52.737Z,27.11
2023-02-07T08:22:54.925Z,27.16
2023-02-07T08:23:57.030Z,26.11
2023-02-07T08:24:58.991Z,23.99
2023-02-07T08:26:00.845Z,24.66
2023-02-07T08:27:03.922Z,25.81
2023-02-07T08:28:05.739Z,25.05
2023-02-07T08:29:07.627Z,24.77
2023-02-07T08:30:13.021Z,26.66
2023-02-07T08:31:15.007Z,27.31
2023-02-07T08:32:17.316Z,33.37
2023-02-07T08:33:19.265Z,39.22
2023-02-07T08:34:24.368Z,40.77
2023-02-07T08:35:28.192Z,39.35
2023-02-07T08:36:30.076Z,57.57
2023-02-07T08:37:32.005Z,96.14
2023-02-07T08:38:34.784Z,84.87
2023-02-07T08:39:36.670Z,60.51
2023-02-07T08:40:39.186Z,37.51
2023-02-07T08:41:42.098Z,51.71
2023-02-07T08:42:44.356Z,64.23
2023-02-07T08:43:46.179Z,62.87
2023-02-07T08:44:49.217Z,65.64
2023-02-07T08:45:51.103Z,55.92
2023-02-07T08:46:53.250Z,60.00
2023-02-07T08:47:55.658Z,67.52
2023-02-07T08:48:57.502Z,65.84
2023-02-07T08:49:59.736Z,56.10
2023-02-07T08:51:09.084Z,56.42
2023-02-07T08:52:12.327Z,57.93
2023-02-07T08:53:14.357Z,74.96
2023-02-07T08:54:16.295Z,70.58
2023-02-07T08:55:20.502Z,58.60
2023-02-07T08:56:22.457Z,40.03
2023-02-07T08:57:26.092Z,34.33
2023-02-07T08:58:28.327Z,31.26
2023-02-07T08:59:30.138Z,29.89
2023-02-07T09:00:32.290Z,25.81
2023-02-07T09:01:34.312Z,23.20
2023-02-07T09:02:36.438Z,22.09
2023-02-07T09:03:39.674Z,24.00
2023-02-07T09:04:43.411Z,24.17
2023-02-07T09:05:45.770Z,26.42
2023-02-07T09:06:47.794Z,27.85
2023-02-07T09:07:49.600Z,24.57
2023-02-07T09:08:52.524Z,23.21
2023-02-07T09:09:54.432Z,25.55
2023-02-07T09:10:56.363Z,27.11
2023-02-07T09:11:58.369Z,27.08
2023-02-07T09:13:00.276Z,25.79
2023-02-07T09:14:02.208Z,23.27
2023-02-07T09:15:06.088Z,21.65
2023-02-07T09:16:08.009Z,20.87
2023-02-07T09:17:10.094Z,19.90
2023-02-07T09:18:12.439Z,19.58
2023-02-07T09:19:14.512Z,18.99
2023-02-07T09:20:16.331Z,20.09
2023-02-07T09:21:18.727Z,21.22
2023-02-07T09:22:20.626Z,21.74
2023-02-07T09:23:22.531Z,20.44
2023-02-07T09:24:24.807Z,20.26
2023-02-07T09:25:26.958Z,18.83
2023-02-07T09:26:31.180Z,20.04
2023-02-07T09:27:33.095Z,20.79
2023-02-07T09:28:36.052Z,20.33
2023-02-07T09:29:37.986Z,19.65
2023-02-07T09:30:44.590Z,19.53
2023-02-07T09:31:47.129Z,20.29
2023-02-07T09:32:49.034Z,21.44
2023-02-07T09:33:51.011Z,21.93
2023-02-07T09:34:54.610Z,23.04
2023-02-07T09:35:56.620Z,22.40
2023-02-07T09:36:58.623Z,22.50
2023-02-07T09:38:00.511Z,23.69
2023-02-07T09:39:02.960Z,23.34
2023-02-07T09:40:05.289Z,22.00
2023-02-07T09:41:34.236Z,23.39
2023-02-07T09:42:55.623Z,23.83
2023-02-07T09:44:29.512Z,24.33
2023-02-07T09:45:38.962Z,24.26
2023-02-07T09:47:08.131Z,26.13
2023-02-07T09:48:23.307Z,24.99
2023-02-07T09:49:44.170Z,27.17
2023-02-07T09:50:57.118Z,24.67
2023-02-07T09:52:03.526Z,24.60
2023-02-07T09:53:19.831Z,25.92
2023-02-07T09:54:29.214Z,27.57
2023-02-07T09:55:40.936Z,26.85
2023-02-07T09:56:44.697Z,27.16
2023-02-07T09:58:02.175Z,26.14
2023-02-07T09:59:23.069Z,25.47
2023-02-07T10:00:34.041Z,26.84
2023-02-07T10:01:47.635Z,25.41
2023-02-07T10:03:12.125Z,23.85
2023-02-07T10:04:23.229Z,25.77
2023-02-07T10:05:40.549Z,26.26
2023-02-07T10:06:46.887Z,25.61
2023-02-07T10:07:49.366Z,26.29
2023-02-07T10:08:55.519Z,24.84
2023-02-07T10:09:57.295Z,25.42
2023-02-07T10:11:13.713Z,25.55
2023-02-07T10:12:29.355Z,26.22
2023-02-07T10:14:17.397Z,29.25
2023-02-07T10:15:43.031Z,29.00
2023-02-07T10:17:02.969Z,27.98
2023-02-07T10:18:30.287Z,28.43
2023-02-07T10:19:44.064Z,28.06
2023-02-07T10:21:01.008Z,27.17
2023-02-07T10:22:20.944Z,25.69
2023-02-07T10:23:31.928Z,26.51
2023-02-07T10:24:42.483Z,25.55
2023-02-07T10:26:12.103Z,27.74
2023-02-07T10:27:29.790Z,26.64
2023-02-07T10:28:42.006Z,29.05
2023-02-07T10:29:57.423Z,24.86
2023-02-07T10:31:07.012Z,24.52
2023-02-07T10:32:23.682Z,24.68
2023-02-07T10:33:33.829Z,26.59
2023-02-07T10:34:41.904Z,24.80
2023-02-07T10:35:46.381Z,23.04
2023-02-07T10:36:52.177Z,22.90
2023-02-07T10:38:00.539Z,23.35
2023-02-07T10:39:24.437Z,22.14
2023-02-07T10:40:33.420Z,23.04
2023-02-07T10:41:38.654Z,23.82
2023-02-07T10:42:46.181Z,25.24
2023-02-07T10:43:49.094Z,27.16
2023-02-07T10:44:51.219Z,26.97
2023-02-07T10:46:04.691Z,25.74
2023-02-07T10:47:13.099Z,26.03
2023-02-07T10:48:16.514Z,26.23
2023-02-07T10:49:25.944Z,27.26
2023-02-07T10:50:30.561Z,26.17
2023-02-07T10:51:45.996Z,28.96
2023-02-07T10:52:54.899Z,26.67
2023-02-07T10:54:12.550Z,23.38
2023-02-07T10:55:19.311Z,23.17
2023-02-07T10:56:28.094Z,22.28
2023-02-07T10:57:31.160Z,22.69
2023-02-07T10:58:40.465Z,24.63
2023-02-07T10:59:48.041Z,24.94
2023-02-07T11:00:54.151Z,26.82
2023-02-07T11:01:56.354Z,25.09
2023-02-07T11:03:15.902Z,23.81
2023-02-07T11:04:36.563Z,21.57
2023-02-07T11:05:50.508Z,21.49
2023-02-07T11:07:01.621Z,22.14
2023-02-07T11:08:18.232Z,21.42
2023-02-07T11:09:23.984Z,19.91
2023-02-07T11:10:48.837Z,20.16
2023-02-07T11:11:52.903Z,20.95
2023-02-07T11:12:57.566Z,21.70
2023-02-07T11:14:05.318Z,23.22
2023-02-07T11:15:17.877Z,23.37
2023-02-07T11:16:23.494Z,23.72
2023-02-07T11:17:25.722Z,22.25
2023-02-07T11:18:45.476Z,23.08
2023-02-07T11:19:48.689Z,24.94
2023-02-07T11:20:53.384Z,23.55
2023-02-07T11:22:18.213Z,25.31
2023-02-07T11:23:20.070Z,23.90
2023-02-07T11:24:31.236Z,22.17
2023-02-07T11:25:40.284Z,22.31
2023-02-07T11:26:56.716Z,21.15
2023-02-07T11:27:59.563Z,18.33
2023-02-07T11:29:12.390Z,18.28
2023-02-07T11:30:22.142Z,18.09
2023-02-07T11:31:31.796Z,20.18
2023-02-07T11:32:36.361Z,20.94
2023-02-07T11:33:38.535Z,17.82
2023-02-07T11:34:49.525Z,18.61
2023-02-07T11:36:19.020Z,17.51
2023-02-07T11:37:28.680Z,24.00
2023-02-07T11:38:31.706Z,35.27
2023-02-07T11:39:33.868Z,27.80
2023-02-07T11:40:42.324Z,21.22
2023-02-07T11:41:54.254Z,21.82
2023-02-07T11:43:03.905Z,57.26
2023-02-07T11:44:18.266Z,40.40
2023-02-07T11:45:23.370Z,36.08
2023-02-07T11:46:39.589Z,32.86
2023-02-07T11:47:51.964Z,26.76
2023-02-07T11:48:58.429Z,36.08
2023-02-07T11:50:06.753Z,32.04
2023-02-07T11:51:17.569Z,23.34
2023-02-07T11:52:19.903Z,28.57
2023-02-07T11:53:40.652Z,36.30
2023-02-07T11:54:51.474Z,35.56
2023-02-07T11:55:56.416Z,30.63
2023-02-07T11:57:14.286Z,26.71
2023-02-07T11:58:46.548Z,26.75
2023-02-07T11:59:58.998Z,18.82
2023-02-07T12:01:04.508Z,14.66
2023-02-07T12:02:19.995Z,13.10
2023-02-07T12:03:26.684Z,12.45
2023-02-07T12:04:35.335Z,13.90
2023-02-07T12:05:45.204Z,14.16
2023-02-07T12:07:11.375Z,13.96
2023-02-07T12:08:18.618Z,12.71
2023-02-07T12:09:40.983Z,11.27
2023-02-07T12:10:49.488Z,11.47
2023-02-07T12:11:57.739Z,11.81
2023-02-07T12:13:27.673Z,12.57
2023-02-07T12:14:35.589Z,13.56
2023-02-07T12:16:13.187Z,13.39
2023-02-07T12:17:27.269Z,12.46
2023-02-07T12:18:47.877Z,13.54
2023-02-07T12:19:58.230Z,13.99
2023-02-07T12:21:26.239Z,14.76
2023-02-07T12:23:00.153Z,16.47
2023-02-07T12:24:27.230Z,18.81
2023-02-07T12:25:49.082Z,18.49
2023-02-07T12:27:00.326Z,18.11
2023-02-07T12:28:18.784Z,19.69
2023-02-07T12:29:30.832Z,17.81
2023-02-07T12:30:44.204Z,19.98
2023-02-07T12:31:58.298Z,19.37
2023-02-07T12:33:27.828Z,18.37
2023-02-07T12:34:38.573Z,19.51
2023-02-07T12:36:10.357Z,19.63
2023-02-07T12:37:21.562Z,21.54
2023-02-07T12:38:27.523Z,26.93
2023-02-07T12:39:57.090Z,20.10
2023-02-07T12:41:28.021Z,16.22
2023-02-07T12:42:40.804Z,22.27
2023-02-07T12:43:51.194Z,20.05
2023-02-07T12:45:00.510Z,20.45
2023-02-07T12:46:02.667Z,21.55
2023-02-07T12:47:31.086Z,21.80
2023-02-07T12:48:55.127Z,17.53
2023-02-07T12:50:25.357Z,16.02
2023-02-07T12:51:30.606Z,15.73
2023-02-07T12:52:34.502Z,15.24
2023-02-07T12:53:48.536Z,16.99
2023-02-07T12:55:15.377Z,14.67
2023-02-07T12:56:36.083Z,15.57
2023-02-07T12:58:02.832Z,14.80
2023-02-07T12:59:45.969Z,17.20
2023-02-07T13:01:13.469Z,15.93
2023-02-07T13:02:36.195Z,18.16
2023-02-07T13:04:14.232Z,16.34
2023-02-07T13:05:34.519Z,17.44
2023-02-07T13:06:58.194Z,17.65
2023-02-07T13:08:06.070Z,15.78
2023-02-07T13:09:29.248Z,17.33
2023-02-07T13:10:36.474Z,18.66
2023-02-07T13:11:58.666Z,21.01
2023-02-07T13:13:24.917Z,25.43
2023-02-07T13:14:35.784Z,21.08
2023-02-07T13:15:52.731Z,20.09
2023-02-07T13:17:15.193Z,20.67
2023-02-07T13:18:17.240Z,19.51
2023-02-07T13:19:31.956Z,22.22
2023-02-07T13:20:58.835Z,23.44
2023-02-07T13:22:12.072Z,21.97
2023-02-07T13:23:22.541Z,20.38
2023-02-07T13:24:29.357Z,21.37
2023-02-07T13:25:42.421Z,20.18
2023-02-07T13:26:57.440Z,21.17
2023-02-07T13:28:12.016Z,20.30
2023-02-07T13:29:17.036Z,21.14
2023-02-07T13:30:21.418Z,21.17
2023-02-07T13:31:49.394Z,21.09
2023-02-07T13:32:53.724Z,22.24
2023-02-07T13:33:56.032Z,22.23
2023-02-07T13:35:01.203Z,23.15
2023-02-07T13:36:15.024Z,24.65
2023-02-07T13:37:19.371Z,26.99
2023-02-07T13:38:39.120Z,28.91
2023-02-07T13:40:14.808Z,28.32
2023-02-07T13:41:48.090Z,25.15
2023-02-07T13:43:00.053Z,23.95
2023-02-07T13:44:23.610Z,24.24
2023-02-07T13:45:49.901Z,23.76
2023-02-07T13:47:15.640Z,23.59
2023-02-07T13:48:57.323Z,21.84
2023-02-07T13:50:33.432Z,22.24
2023-02-07T13:52:02.582Z,22.04
2023-02-07T13:53:39.322Z,21.23
2023-02-07T13:54:55.216Z,21.26
2023-02-07T13:56:30.312Z,21.88
2023-02-07T13:57:53.962Z,21.62
2023-02-07T13:59:14.385Z,23.33
2023-02-07T14:00:25.111Z,22.00
2023-02-07T14:01:32.704Z,21.90
2023-02-07T14:02:46.609Z,22.06
2023-02-07T14:04:05.916Z,21.47
2023-02-07T14:05:30.747Z,23.03
2023-02-07T14:06:54.977Z,24.29
2023-02-07T14:08:03.755Z,22.64
2023-02-07T14:09:17.166Z,23.85
2023-02-07T14:10:40.650Z,25.33
2023-02-07T14:12:03.300Z,24.76
2023-02-07T14:13:05.925Z,23.86
2023-02-07T14:14:32.728Z,23.49
2023-02-07T14:15:54.021Z,25.52
2023-02-07T14:17:34.734Z,27.08
2023-02-07T14:18:52.776Z,25.96
2023-02-07T14:20:00.509Z,25.05
2023-02-07T14:21:05.621Z,23.04
2023-02-07T14:22:19.682Z,24.86
2023-02-07T14:23:21.639Z,25.63
2023-02-07T14:24:31.168Z,26.99
2023-02-07T14:25:33.371Z,29.58
2023-02-07T14:26:38.395Z,31.61
2023-02-07T14:27:51.547Z,29.43
2023-02-07T14:29:20.171Z,30.80
2023-02-07T14:30:30.578Z,28.89
2023-02-07T14:31:32.886Z,30.04
2023-02-07T14:33:13.867Z,31.71
2023-02-07T14:34:24.521Z,31.68
2023-02-07T14:35:26.305Z,27.29
2023-02-07T14:36:29.190Z,27.42
2023-02-07T14:37:40.342Z,27.75
2023-02-07T14:39:03.018Z,27.92
2023-02-07T14:40:24.827Z,27.92
2023-02-07T14:41:34.859Z,25.76
2023-02-07T14:42:36.812Z,25.92
2023-02-07T14:43:44.817Z,26.94
2023-02-07T14:44:51.016Z,27.04
2023-02-07T14:45:52.870Z,24.99
2023-02-07T14:46:59.126Z,24.24
2023-02-07T14:48:02.167Z,23.17
2023-02-07T14:49:26.886Z,24.34
2023-02-07T14:50:35.501Z,25.44
2023-02-07T14:51:44.980Z,25.94
2023-02-07T14:52:48.879Z,25.41
2023-02-07T14:54:16.644Z,25.60